createdAt,value
2023-03-02T00:01:35.308Z,78.30
2023-03-02T00:04:59.826Z,77.60
2023-03-02T00:08:23.820Z,77.20
2023-03-02T00:11:47.746Z,76.90
2023-03-02T00:15:13.148Z,77.00
2023-03-02T00:18:36.863Z,77.30
2023-03-02T00:22:00.553Z,77.20
2023-03-02T00:25:25.153Z,77.50
2023-03-02T00:28:49.028Z,77.40
2023-03-02T00:32:18.082Z,78.10
2023-03-02T00:35:47.684Z,78.20
2023-03-02T00:39:11.324Z,78.70
2023-03-02T00:42:34.992Z,79.20
2023-03-02T00:45:59.029Z,79.10
2023-03-02T00:49:24.355Z,79.60
2023-03-02T00:52:48.136Z,79.80
2023-03-02T00:56:11.963Z,80.10
2023-03-02T00:59:40.545Z,80.80
2023-03-02T01:03:28.563Z,80.90
2023-03-02T01:06:53.667Z,81.30
2023-03-02T01:10:17.548Z,81.60
2023-03-02T01:13:41.612Z,82.20
2023-03-02T01:17:06.300Z,82.30
2023-03-02T01:20:31.106Z,83.00
2023-03-02T01:23:57.127Z,83.20
2023-03-02T01:27:24.347Z,83.20
2023-03-02T01:30:48.904Z,83.10
2023-03-02T01:34:12.640Z,83.10
2023-03-02T01:37:36.600Z,83.40
2023-03-02T01:46:19.192Z,83.30
2023-03-02T01:50:01.327Z,83.50
2023-03-02T01:53:35.150Z,83.70
2023-03-02T01:57:04.512Z,83.60
2023-03-02T02:00:35.987Z,83.80
2023-03-02T02:04:03.874Z,83.90
2023-03-02T02:07:29.095Z,84.00
2023-03-02T02:10:57.091Z,83.80
2023-03-02T02:14:23.434Z,83.80
2023-03-02T02:17:48.184Z,83.80
2023-03-02T02:21:15.683Z,83.80
2023-03-02T02:24:47.952Z,83.60
2023-03-02T02:28:26.464Z,83.70
2023-03-02T02:31:55.668Z,83.80
2023-03-02T02:35:22.667Z,83.80
2023-03-02T02:38:50.268Z,84.00
2023-03-02T02:42:19.932Z,84.20
2023-03-02T02:45:48.701Z,84.60
2023-03-02T02:49:29.887Z,84.70
2023-03-02T02:52:59.908Z,84.80
2023-03-02T02:56:23.775Z,85.00
2023-03-02T02:59:49.854Z,85.30
2023-03-02T03:03:30.954Z,85.70
2023-03-02T03:07:01.326Z,85.90
2023-03-02T03:10:29.844Z,85.90
2023-03-02T03:13:58.375Z,86.00
2023-03-02T03:17:24.930Z,86.10
2023-03-02T03:20:56.102Z,86.20
2023-03-02T03:24:21.312Z,86.20
2023-03-02T03:27:45.993Z,86.10
2023-03-02T03:31:10.764Z,86.00
2023-03-02T03:34:40.922Z,86.00
2023-03-02T03:38:13.217Z,86.00
2023-03-02T03:41:38.209Z,86.10
2023-03-02T03:45:02.921Z,86.20
2023-03-02T03:48:30.797Z,86.20
2023-03-02T03:51:55.101Z,86.20
2023-03-02T03:55:21.366Z,86.10
2023-03-02T03:58:46.751Z,86.20
2023-03-02T04:02:14.401Z,86.30
2023-03-02T04:05:39.676Z,86.30
2023-03-02T04:09:04.524Z,86.40
2023-03-02T04:12:31.609Z,86.80
2023-03-02T04:15:55.878Z,87.30
2023-03-02T04:19:21.843Z,87.40
2023-03-02T04:22:51.582Z,87.40
2023-03-02T04:26:17.364Z,87.40
2023-03-02T04:29:43.861Z,87.30
2023-03-02T04:33:08.906Z,88.10
2023-03-02T04:36:34.335Z,87.50
2023-03-02T04:40:00.961Z,87.60
2023-03-02T04:43:26.630Z,87.70
2023-03-02T04:46:52.798Z,87.60
2023-03-02T04:50:16.711Z,87.80
2023-03-02T04:53:40.945Z,88.00
2023-03-02T04:57:05.033Z,88.20
2023-03-02T05:00:33.881Z,88.20
2023-03-02T05:04:00.221Z,88.40
2023-03-02T05:07:25.945Z,88.70
2023-03-02T05:10:50.196Z,88.50
2023-03-02T05:14:14.234Z,88.70
2023-03-02T05:17:37.890Z,88.90
2023-03-02T05:21:06.352Z,89.00
2023-03-02T05:24:30.917Z,89.10
2023-03-02T05:27:55.038Z,89.30
2023-03-02T05:31:23.218Z,89.50
2023-03-02T05:34:46.854Z,89.70
2023-03-02T05:38:14.771Z,89.80
2023-03-02T05:41:39.902Z,90.00
2023-03-02T05:45:03.729Z,90.10
2023-03-02T05:48:28.163Z,90.10
2023-03-02T05:51:51.935Z,90.20
2023-03-02T05:55:18.420Z,90.30
2023-03-02T05:58:43.184Z,90.30
2023-03-02T06:02:06.912Z,90.30
2023-03-02T06:05:31.943Z,90.40
2023-03-02T06:08:56.433Z,90.40
2023-03-02T06:12:22.307Z,90.50
2023-03-02T06:15:46.008Z,90.40
2023-03-02T06:19:10.057Z,90.60
2023-03-02T06:22:34.253Z,90.70
2023-03-02T06:26:00.646Z,90.80
2023-03-02T06:29:26.757Z,90.80
2023-03-02T06:32:51.561Z,90.80
2023-03-02T06:36:17.083Z,90.80
2023-03-02T06:39:41.030Z,90.90
2023-03-02T06:43:05.444Z,90.80
2023-03-02T06:46:31.713Z,90.80
2023-03-02T06:50:06.988Z,90.80
2023-03-02T06:53:32.026Z,90.80
2023-03-02T06:56:59.169Z,90.90
2023-03-02T07:00:28.147Z,91.00
2023-03-02T07:03:54.403Z,91.30
2023-03-02T07:07:18.998Z,92.20
2023-03-02T07:10:43.102Z,92.50
2023-03-02T07:14:07.114Z,92.90
2023-03-02T07:17:31.077Z,93.60
2023-03-02T07:20:58.580Z,93.60
2023-03-02T07:24:23.380Z,93.70
2023-03-02T07:27:51.881Z,94.00
2023-03-02T07:31:18.030Z,94.40
2023-03-02T07:34:42.198Z,91.70
2023-03-02T07:38:07.189Z,89.10
2023-03-02T07:41:31.446Z,86.10
2023-03-02T07:44:55.612Z,83.30
2023-03-02T07:48:20.088Z,83.30
2023-03-02T07:51:44.071Z,82.80
2023-03-02T07:55:10.156Z,79.70
2023-03-02T07:58:35.261Z,79.50
2023-03-02T08:02:00.381Z,77.40
2023-03-02T08:05:24.494Z,73.80
2023-03-02T08:08:48.083Z,75.10
2023-03-02T08:12:13.013Z,73.60
2023-03-02T08:15:36.586Z,73.60
2023-03-02T08:19:00.156Z,70.30
2023-03-02T08:22:23.788Z,67.90
2023-03-02T08:25:47.303Z,67.50
2023-03-02T08:29:12.277Z,65.70
2023-03-02T08:32:35.840Z,64.30
2023-03-02T08:36:01.686Z,64.20
2023-03-02T08:39:30.091Z,61.30
2023-03-02T08:42:56.977Z,59.70
2023-03-02T08:46:22.259Z,61.30
2023-03-02T08:49:48.002Z,60.00
2023-03-02T08:53:11.831Z,59.70
2023-03-02T08:56:37.388Z,59.00
2023-03-02T09:00:00.943Z,59.70
2023-03-02T09:03:26.224Z,58.80
2023-03-02T09:06:49.840Z,58.80
2023-03-02T09:10:13.456Z,60.60
2023-03-02T09:13:43.428Z,63.20
2023-03-02T09:17:07.033Z,60.90
2023-03-02T09:20:33.862Z,61.40
2023-03-02T09:23:58.265Z,58.80
2023-03-02T09:27:21.859Z,55.50
2023-03-02T09:30:49.966Z,57.80
2023-03-02T09:34:13.431Z,60.20
2023-03-02T09:37:38.891Z,59.50
2023-03-02T09:41:38.202Z,58.90
2023-03-02T09:45:14.635Z,60.20
2023-03-02T09:48:44.406Z,59.30
2023-03-02T09:52:17.431Z,58.40
2023-03-02T09:55:42.519Z,59.80
2023-03-02T09:59:09.605Z,59.70
2023-03-02T10:02:39.202Z,58.00
2023-03-02T10:06:02.844Z,58.90
2023-03-02T10:09:27.040Z,60.30
2023-03-02T10:13:05.304Z,58.50
2023-03-02T10:16:35.944Z,58.70
2023-03-02T10:20:03.932Z,58.80
2023-03-02T10:23:45.855Z,59.90
2023-03-02T10:27:17.499Z,62.30
2023-03-02T10:30:42.888Z,61.50
2023-03-02T10:34:09.469Z,60.70
2023-03-02T10:37:33.070Z,60.40
2023-03-02T10:41:00.650Z,60.00
2023-03-02T10:44:30.052Z,63.60
2023-03-02T10:48:03.068Z,63.10
2023-03-02T10:51:28.518Z,65.60
2023-03-02T10:55:03.005Z,67.10
2023-03-02T10:58:31.313Z,66.50
2023-03-02T11:02:01.706Z,65.80
2023-03-02T11:05:32.290Z,67.30
2023-03-02T11:09:00.552Z,68.10
2023-03-02T11:12:25.091Z,69.70
2023-03-02T11:15:51.737Z,71.40
2023-03-02T11:19:21.592Z,71.90
2023-03-02T11:22:54.485Z,72.90
2023-03-02T11:26:24.584Z,73.80
2023-03-02T11:29:52.925Z,75.70
2023-03-02T11:33:22.881Z,77.30
2023-03-02T11:36:55.742Z,77.80
2023-03-02T11:40:27.069Z,77.60
2023-03-02T11:43:50.617Z,78.10
2023-03-02T11:47:14.412Z,79.70
2023-03-02T11:50:47.888Z,80.60
2023-03-02T11:54:24.680Z,79.60
2023-03-02T11:57:53.322Z,80.10
2023-03-02T12:01:20.745Z,79.90
2023-03-02T12:04:44.392Z,80.60
2023-03-02T12:08:29.103Z,81.40
2023-03-02T12:11:57.079Z,80.00
2023-03-02T12:15:42.593Z,80.70
2023-03-02T12:19:27.343Z,80.30
2023-03-02T12:22:51.114Z,79.90
2023-03-02T12:26:28.253Z,80.20
2023-03-02T12:29:57.367Z,80.90
2023-03-02T12:33:23.097Z,80.30
2023-03-02T12:36:47.187Z,80.30
2023-03-02T12:40:44.200Z,80.60
2023-03-02T12:44:21.262Z,81.40
2023-03-02T12:47:48.961Z,81.80
2023-03-02T12:51:19.343Z,81.00
2023-03-02T12:54:43.053Z,80.10
2023-03-02T12:58:19.172Z,79.80
2023-03-02T13:01:42.741Z,79.90
2023-03-02T13:05:08.790Z,79.90
2023-03-02T13:08:34.103Z,79.20
2023-03-02T13:11:59.103Z,79.60
2023-03-02T13:15:22.882Z,80.00
2023-03-02T13:18:49.400Z,80.40
2023-03-02T13:22:15.065Z,80.20
2023-03-02T13:25:50.356Z,80.10
2023-03-02T13:29:20.682Z,79.30
2023-03-02T13:32:45.085Z,79.00
2023-03-02T13:36:17.872Z,78.60
2023-03-02T13:39:41.458Z,79.50
2023-03-02T13:43:20.138Z,79.50
2023-03-02T13:46:43.700Z,79.40
2023-03-02T13:50:09.281Z,78.70
2023-03-02T13:53:37.917Z,78.60
2023-03-02T13:57:03.209Z,79.30
2023-03-02T14:00:31.965Z,79.60
2023-03-02T14:03:57.376Z,79.30
2023-03-02T14:07:21.133Z,80.20
2023-03-02T14:10:44.889Z,81.30
2023-03-02T14:14:13.153Z,80.30
2023-03-02T14:17:38.195Z,82.70
2023-03-02T14:21:01.830Z,83.80
2023-03-02T14:24:25.619Z,85.70
2023-03-02T14:27:49.259Z,86.70
2023-03-02T14:31:12.868Z,87.50
2023-03-02T14:34:37.943Z,87.80
2023-03-02T14:38:01.586Z,87.50
2023-03-02T14:41:25.919Z,87.20
2023-03-02T14:44:50.999Z,87.10
2023-03-02T14:48:14.555Z,87.60
2023-03-02T14:51:44.331Z,88.10
2023-03-02T14:55:13.327Z,89.60
2023-03-02T14:58:37.040Z,89.70
2023-03-02T15:02:10.246Z,90.30
2023-03-02T15:05:42.106Z,90.60
2023-03-02T15:09:12.905Z,91.10
2023-03-02T15:12:37.348Z,91.50
2023-03-02T15:16:01.048Z,91.80
2023-03-02T15:19:28.249Z,91.80
2023-03-02T15:22:53.370Z,91.90
2023-03-02T15:26:32.499Z,91.90
2023-03-02T15:29:58.846Z,92.30
2023-03-02T15:33:25.004Z,92.90
2023-03-02T15:36:50.951Z,92.80
2023-03-02T15:40:14.766Z,92.90
2023-03-02T15:43:40.566Z,93.30
2023-03-02T15:47:06.808Z,93.60
2023-03-02T15:50:30.505Z,93.60
2023-03-02T15:53:54.217Z,93.70
2023-03-02T15:57:18.605Z,93.70
2023-03-02T16:00:43.689Z,94.10
2023-03-02T16:04:07.481Z,94.40
2023-03-02T16:07:31.993Z,94.70
2023-03-02T16:10:59.474Z,95.00
2023-03-02T16:14:23.252Z,95.40
2023-03-02T16:17:48.418Z,95.70
2023-03-02T16:21:13.501Z,96.20
2023-03-02T16:24:37.140Z,96.40
2023-03-02T16:28:04.514Z,96.60
2023-03-02T16:31:38.172Z,96.80
2023-03-02T16:35:14.258Z,96.90
2023-03-02T16:38:42.022Z,97.10
2023-03-02T16:42:09.681Z,97.20
2023-03-02T16:45:35.653Z,97.60
2023-03-02T16:49:01.659Z,97.90
2023-03-02T16:52:29.364Z,98.20
2023-03-02T16:55:58.267Z,98.50
2023-03-02T16:59:24.478Z,98.60
2023-03-02T17:02:51.630Z,98.70
2023-03-02T17:06:22.847Z,98.90
2023-03-02T17:09:52.771Z,99.00
2023-03-02T17:13:19.624Z,99.20
2023-03-02T17:16:51.494Z,99.30
2023-03-02T17:20:15.922Z,99.50
2023-03-02T17:23:44.028Z,99.60
2023-03-02T17:27:24.220Z,99.60
2023-03-02T17:30:51.405Z,99.70
2023-03-02T17:34:21.540Z,99.90
2023-03-02T17:37:45.284Z,99.90
2023-03-02T17:41:11.996Z,99.90
2023-03-02T17:44:44.201Z,99.90
2023-03-02T17:48:08.981Z,99.90
2023-03-02T17:51:32.946Z,99.90
2023-03-02T17:54:56.814Z,99.90
2023-03-02T17:58:20.876Z,99.90
2023-03-02T18:01:46.045Z,99.90
2023-03-02T18:05:10.980Z,99.90
2023-03-02T18:08:34.615Z,99.90
2023-03-02T18:11:58.238Z,99.90
2023-03-02T18:15:22.140Z,99.90
2023-03-02T18:18:47.300Z,99.90
2023-03-02T18:22:12.034Z,99.90
2023-03-02T18:25:35.732Z,99.90
2023-03-02T18:28:59.306Z,99.90
2023-03-02T18:32:23.174Z,99.90
2023-03-02T18:35:48.451Z,99.90
2023-03-02T18:39:12.253Z,99.90
2023-03-02T18:42:35.982Z,99.90
2023-03-02T18:45:59.621Z,99.90
2023-03-02T18:49:23.799Z,99.90
2023-03-02T18:52:50.160Z,99.90
2023-03-02T18:56:14.564Z,99.90
2023-03-02T18:59:38.633Z,99.90
2023-03-02T19:03:03.311Z,99.90
2023-03-02T19:06:27.162Z,99.90
2023-03-02T19:09:52.659Z,99.90
2023-03-02T19:13:16.404Z,99.90
2023-03-02T19:16:40.243Z,99.90
2023-03-02T19:20:04.644Z,99.90
2023-03-02T19:23:28.722Z,99.90
2023-03-02T19:26:54.231Z,99.90
2023-03-02T19:30:20.990Z,99.90
2023-03-02T19:33:45.481Z,99.90
2023-03-02T19:37:09.268Z,99.90
2023-03-02T19:40:34.439Z,99.90
2023-03-02T19:44:00.153Z,99.90
2023-03-02T19:47:23.905Z,99.90
2023-03-02T19:50:47.559Z,99.90
2023-03-02T19:54:11.309Z,99.90
2023-03-02T19:57:35.019Z,99.90
2023-03-02T20:01:00.495Z,99.90
2023-03-02T20:04:24.670Z,99.90
2023-03-02T20:07:48.286Z,99.90
2023-03-02T20:11:13.001Z,99.90
2023-03-02T20:14:38.597Z,99.90
2023-03-02T20:18:03.623Z,99.90
2023-03-02T20:21:27.302Z,99.90
2023-03-02T20:24:51.060Z,99.90
2023-03-02T20:28:18.035Z,99.90
2023-03-02T20:31:42.242Z,99.90
2023-03-02T20:35:07.883Z,99.90
2023-03-02T20:38:34.770Z,99.90
2023-03-02T20:41:59.085Z,99.90
2023-03-02T20:45:22.875Z,99.90
2023-03-02T20:48:46.753Z,99.90
2023-03-02T20:52:15.831Z,99.90
2023-03-02T20:55:40.348Z,99.90
2023-03-02T20:59:05.334Z,99.90
2023-03-02T21:02:33.341Z,99.90
2023-03-02T21:05:59.083Z,99.90
2023-03-02T21:09:26.805Z,99.90
2023-03-02T21:12:53.385Z,99.90
2023-03-02T21:16:23.715Z,99.90
2023-03-02T21:19:54.309Z,99.90
2023-03-02T21:23:24.331Z,99.90
2023-03-02T21:26:57.330Z,99.90
2023-03-02T21:30:24.332Z,99.90
2023-03-02T21:33:51.345Z,99.90
2023-03-02T21:37:16.670Z,99.90
2023-03-02T21:40:48.419Z,99.90
2023-03-02T21:44:17.578Z,99.90
2023-03-02T21:47:43.867Z,99.90
2023-03-02T21:51:10.285Z,99.90
2023-03-02T21:54:41.583Z,99.90
2023-03-02T21:58:06.503Z,99.90
2023-03-02T22:01:35.225Z,99.90
2023-03-02T22:05:07.904Z,99.90
2023-03-02T22:08:31.614Z,99.90
2023-03-02T22:12:05.329Z,99.90
2023-03-02T22:15:32.528Z,99.90
2023-03-02T22:19:03.916Z,99.90
2023-03-02T22:22:33.181Z,99.90
2023-03-02T22:26:16.442Z,99.90
2023-03-02T22:29:48.853Z,99.90
2023-03-02T22:33:25.909Z,99.90
2023-03-02T22:37:15.538Z,99.90
2023-03-02T22:40:48.386Z,99.90
2023-03-02T22:44:23.096Z,99.90
2023-03-02T22:47:51.658Z,99.90
2023-03-02T22:51:18.343Z,99.90
2023-03-02T22:54:43.662Z,99.90
2023-03-02T22:58:49.398Z,99.90
2023-03-02T23:02:22.167Z,99.90
2023-03-02T23:05:49.049Z,99.90
2023-03-02T23:09:14.419Z,99.90
2023-03-02T23:12:47.893Z,99.90
2023-03-02T23:16:19.777Z,99.90
2023-03-02T23:19:43.319Z,99.90
2023-03-02T23:23:06.884Z,99.90
2023-03-02T23:26:30.417Z,99.90
2023-03-02T23:29:55.621Z,99.90
2023-03-02T23:33:22.450Z,99.90
2023-03-02T23:36:46.032Z,99.90
2023-03-02T23:40:11.345Z,99.90
2023-03-02T23:43:35.385Z,99.90
2023-03-02T23:47:01.235Z,99.90
2023-03-02T23:50:24.821Z,99.90
2023-03-02T23:53:49.213Z,99.90
2023-03-02T23:57:13.281Z,99.90
